Time;durP1;ratioP1;P1;durP2;ratioP2;P2;SDS_P1;SDS_P2;PMS_P1;PMS_P2;Temp;Humidity;BMP_temperature;BMP_pressure;BME280_temperature;BME280_humidity;BME280_pressure;Samples;Min_cycle;Max_cycle;Signal;HPM_P1;HPM_P2
2023/04/15 00:00:54;;;;;;;8.68;5.03;;;;;;;8.04;nan;100777.19;5073370;28;20056;-45
2023/04/15 00:03:19;;;;;;;8.38;4.03;;;;;;;7.69;nan;100722.97;5071006;28;20326;-45
2023/04/15 00:05:44;;;;;;;6.70;4.32;;;;;;;7.95;nan;100770.41;5073512;28;20047;-44
2023/04/15 00:08:10;;;;;;;6.18;4.20;;;;;;;7.97;nan;100775.63;5072539;28;20043;-44
2023/04/15 00:10:35;;;;;;;7.38;4.65;;;;;;;8.03;nan;100792.06;5072362;28;20036;-45
2023/04/15 00:13:01;;;;;;;6.82;4.45;;;;;;;7.88;nan;100774.09;5071901;28;20430;-47
2023/04/15 00:15:27;;;;;;;9.40;4.38;;;;;;;7.56;nan;100714.50;5074387;28;20110;-45
2023/04/15 00:17:52;;;;;;;9.38;4.85;;;;;;;7.90;nan;100788.00;5074341;28;20054;-44
2023/04/15 00:20:18;;;;;;;7.07;4.47;;;;;;;7.38;nan;100712.31;5066973;28;20032;-45
2023/04/15 00:22:43;;;;;;;8.90;4.40;;;;;;;7.78;nan;100799.63;5072816;28;20444;-46
2023/04/15 00:25:08;;;;;;;6.72;4.95;;;;;;;7.54;nan;100771.31;5072670;28;20060;-48
2023/04/15 00:27:34;;;;;;;8.93;5.45;;;;;;;7.24;nan;100727.44;5073622;28;20128;-45
2023/04/15 00:29:59;;;;;;;7.93;5.47;;;;;;;7.40;nan;100755.03;5074045;28;20075;-43
2023/04/15 00:32:24;;;;;;;9.68;5.60;;;;;;;7.28;nan;100753.53;5064132;28;20051;-46
2023/04/15 00:34:50;;;;;;;8.25;5.00;;;;;;;7.11;nan;100728.59;5065308;28;20033;-42
2023/04/15 00:37:15;;;;;;;7.60;5.22;;;;;;;7.09;nan;100730.38;5072457;28;20037;-45
2023/04/15 00:39:41;;;;;;;7.55;5.47;;;;;;;7.41;nan;100801.28;5072236;28;20090;-42
2023/04/15 00:42:06;;;;;;;8.77;5.03;;;;;;;7.40;nan;100796.94;5072466;28;20036;-48
2023/04/15 00:44:32;;;;;;;10.60;5.88;;;;;;;7.09;nan;100746.09;5069754;28;20064;-42
2023/04/15 00:46:59;;;;;;;8.32;5.43;;;;;;;7.05;nan;100749.63;5072590;28;20395;-44
2023/04/15 00:49:24;;;;;;;8.27;5.70;;;;;;;6.97;nan;100736.72;5062919;28;20033;-49
2023/04/15 00:51:50;;;;;;;8.65;6.03;;;;;;;7.30;nan;100824.19;5072741;28;20052;-47
2023/04/15 00:54:16;;;;;;;10.02;5.65;;;;;;;6.90;nan;100722.00;5069669;28;20427;-45
2023/04/15 00:56:41;;;;;;;8.85;5.43;;;;;;;7.34;nan;100802.28;5063467;28;20127;-43
2023/04/15 00:59:08;;;;;;;7.55;5.88;;;;;;;6.94;nan;100735.91;5070040;28;20053;-45
2023/04/15 01:01:35;;;;;;;7.88;5.70;;;;;;;7.33;nan;100796.19;5069687;28;20079;-42
2023/04/15 01:04:01;;;;;;;7.93;5.57;;;;;;;6.95;nan;100740.22;5070872;28;20118;-45
2023/04/15 01:06:27;;;;;;;8.73;5.82;;;;;;;6.84;nan;100727.34;5070751;28;20078;-45
2023/04/15 01:08:53;;;;;;;7.30;5.63;;;;;;;6.83;nan;100735.25;5070617;28;20024;-46
2023/04/15 01:11:18;;;;;;;6.13;5.43;;;;;;;7.17;nan;100797.38;5070502;28;20119;-43
2023/04/15 01:13:45;;;;;;;9.68;6.50;;;;;;;7.12;nan;100796.59;5071021;28;20143;-45
2023/04/15 01:16:11;;;;;;;7.43;5.80;;;;;;;7.08;nan;100805.41;5071582;28;20372;-43
2023/04/15 01:18:38;;;;;;;9.73;5.55;;;;;;;6.71;nan;100750.25;5072264;28;20115;-44
2023/04/15 01:21:05;;;;;;;9.93;5.80;;;;;;;7.03;nan;100807.25;5071692;28;20029;-43
2023/04/15 01:23:31;;;;;;;8.30;5.72;;;;;;;7.00;nan;100809.06;5072087;28;20123;-47
2023/04/15 01:25:57;;;;;;;7.72;5.85;;;;;;;6.59;nan;100740.03;5071911;28;20131;-44
2023/04/15 01:28:23;;;;;;;10.18;5.70;;;;;;;6.94;nan;100811.78;5071000;28;20055;-46
2023/04/15 01:30:48;;;;;;;9.32;6.07;;;;;;;6.91;nan;100798.75;5087541;28;20543;-45
2023/04/15 01:33:14;;;;;;;7.15;5.32;;;;;;;6.55;nan;100747.94;5071488;28;20124;-46
2023/04/15 01:35:40;;;;;;;6.07;5.47;;;;;;;6.47;nan;100742.00;5070871;28;20047;-47
2023/04/15 01:38:07;;;;;;;12.25;6.43;;;;;;;6.81;nan;100798.06;5071861;28;20041;-43
2023/04/15 01:40:33;;;;;;;9.55;5.95;;;;;;;6.38;nan;100732.56;5070027;28;20036;-48
2023/04/15 01:43:00;;;;;;;8.80;6.40;;;;;;;6.72;nan;100795.59;5072740;28;20224;-43
2023/04/15 01:45:26;;;;;;;7.72;5.90;;;;;;;6.70;nan;100800.00;5070823;28;20459;-43
2023/04/15 01:47:51;;;;;;;12.05;6.10;;;;;;;6.63;nan;100795.75;5087294;28;20089;-46
2023/04/15 01:50:17;;;;;;;6.82;6.10;;;;;;;6.66;nan;100806.16;5070208;28;20089;-44
2023/04/15 01:52:43;;;;;;;7.63;6.30;;;;;;;6.63;nan;100800.97;5071777;28;20433;-44
2023/04/15 01:55:09;;;;;;;9.20;6.00;;;;;;;6.13;nan;100724.25;5070685;28;20029;-45
2023/04/15 01:57:34;;;;;;;11.75;6.68;;;;;;;6.46;nan;100787.31;5071655;28;20476;-45
2023/04/15 02:00:00;;;;;;;13.43;6.68;;;;;;;6.50;nan;100804.69;5071311;28;20063;-45
2023/04/15 02:02:25;;;;;;;8.43;6.75;;;;;;;6.55;nan;100810.72;5052445;28;20045;-48
2023/04/15 02:04:50;;;;;;;8.40;6.82;;;;;;;6.52;nan;100813.38;5071322;28;20036;-44
2023/04/15 02:07:16;;;;;;;8.77;6.45;;;;;;;6.48;nan;100806.50;5053599;28;20391;-44
2023/04/15 02:09:42;;;;;;;7.85;7.05;;;;;;;6.14;nan;100746.03;5053883;28;20173;-43
2023/04/15 02:12:08;;;;;;;9.85;7.28;;;;;;;6.05;nan;100733.09;5072520;28;20037;-45
2023/04/15 02:14:33;;;;;;;8.10;6.82;;;;;;;6.51;nan;100809.88;5071184;28;20392;-43
2023/04/15 02:17:05;;;;;;;10.93;6.78;;;;;;;6.40;nan;100790.03;5071311;28;20040;-49
2023/04/15 02:19:31;;;;;;;11.80;7.57;;;;;;;6.52;nan;100809.00;5054769;28;20040;-44
2023/04/15 02:21:56;;;;;;;10.30;7.07;;;;;;;6.13;nan;100734.69;5071873;28;20395;-44
2023/04/15 02:24:21;;;;;;;9.35;7.13;;;;;;;6.55;nan;100815.94;5069528;28;20037;-46
2023/04/15 02:26:47;;;;;;;7.75;6.18;;;;;;;6.44;nan;100796.94;5071050;28;20033;-46
2023/04/15 02:29:12;;;;;;;11.40;6.70;;;;;;;6.50;nan;100812.53;5069959;28;20037;-48
2023/04/15 02:31:39;;;;;;;10.27;6.60;;;;;;;6.13;nan;100745.16;5070912;28;20423;-46
2023/04/15 02:34:04;;;;;;;11.13;7.00;;;;;;;6.11;nan;100749.56;5068723;28;20460;-46
2023/04/15 02:36:30;;;;;;;8.50;6.53;;;;;;;6.02;nan;100736.63;5068088;28;20037;-43
2023/04/15 02:38:56;;;;;;;8.73;6.60;;;;;;;6.52;nan;100831.69;5069858;28;20040;-44
2023/04/15 02:41:26;;;;;;;10.48;6.65;;;;;;;6.50;nan;100839.56;5071200;28;20056;-43
2023/04/15 02:43:51;;;;;;;9.63;7.15;;;;;;;6.07;nan;100754.84;5071321;28;20081;-44
2023/04/15 02:46:16;;;;;;;8.65;6.47;;;;;;;6.05;nan;100754.88;5071977;28;20111;-47
2023/04/15 02:48:42;;;;;;;9.13;6.43;;;;;;;6.44;nan;100846.63;5070268;28;20352;-46
2023/04/15 02:51:21;;;;;;;9.43;6.50;;;;;;;6.33;nan;100835.47;5067824;28;20041;-49
2023/04/15 02:53:47;;;;;;;8.35;7.13;;;;;;;6.37;nan;100835.41;5058432;28;20043;-44
2023/04/15 02:56:14;;;;;;;8.07;7.03;;;;;;;6.28;nan;100832.03;5072015;28;20036;-50
2023/04/15 02:58:40;;;;;;;8.23;6.90;;;;;;;6.09;nan;100819.28;5086640;28;20037;-46
2023/04/15 03:01:06;;;;;;;10.10;7.40;;;;;;;5.87;nan;100770.81;5066170;28;20037;-46
2023/04/15 03:03:32;;;;;;;11.02;7.10;;;;;;;6.03;nan;100801.06;5067706;28;20024;-42
2023/04/15 03:05:57;;;;;;;9.25;7.20;;;;;;;6.26;nan;100847.78;5069379;28;20043;-44
2023/04/15 03:08:22;;;;;;;11.00;6.60;;;;;;;6.23;nan;100846.06;5069745;28;20036;-45
2023/04/15 03:10:48;;;;;;;8.43;6.53;;;;;;;6.01;nan;100815.88;5070009;28;20101;-45
2023/04/15 03:13:13;;;;;;;7.28;6.40;;;;;;;6.18;nan;100845.28;5069973;28;20048;-45
2023/04/15 03:15:38;;;;;;;8.35;7.00;;;;;;;6.16;nan;100848.78;5074699;28;20041;-45
2023/04/15 03:18:04;;;;;;;11.15;7.18;;;;;;;5.78;nan;100780.50;5072161;28;20040;-45
2023/04/15 03:20:29;;;;;;;10.68;7.57;;;;;;;6.10;nan;100848.88;5074125;28;20033;-45
2023/04/15 03:22:54;;;;;;;8.13;6.75;;;;;;;5.93;nan;100824.72;5072299;28;20441;-45
2023/04/15 03:25:20;;;;;;;9.55;7.22;;;;;;;5.73;nan;100793.63;5053888;28;20040;-45
2023/04/15 03:27:46;;;;;;;11.85;8.15;;;;;;;6.00;nan;100853.38;5067935;28;20032;-47
2023/04/15 03:30:11;;;;;;;9.35;8.05;;;;;;;6.06;nan;100863.75;5074007;28;20399;-44
2023/04/15 03:32:37;;;;;;;9.85;7.28;;;;;;;6.07;nan;100859.38;5090116;28;20081;-45
2023/04/15 03:35:03;;;;;;;10.80;7.25;;;;;;;6.04;nan;100846.34;5072944;28;20064;-45
2023/04/15 03:37:28;;;;;;;9.75;7.65;;;;;;;6.05;nan;100862.00;5065729;28;20044;-44
2023/04/15 03:39:53;;;;;;;10.43;7.38;;;;;;;5.64;nan;100806.78;5059386;28;20029;-46
2023/04/15 03:42:19;;;;;;;10.73;7.13;;;;;;;5.95;nan;100870.00;5074490;28;20040;-46
2023/04/15 03:44:44;;;;;;;11.35;7.72;;;;;;;5.94;nan;100879.56;5066480;28;20384;-45
2023/04/15 03:47:10;;;;;;;11.13;7.18;;;;;;;5.49;nan;100812.19;5074525;28;20454;-45
2023/04/15 03:49:36;;;;;;;7.72;7.03;;;;;;;5.60;nan;100836.47;5088616;28;20041;-44
2023/04/15 03:52:01;;;;;;;10.40;8.07;;;;;;;5.79;nan;100890.19;5074697;28;20033;-42
2023/04/15 03:54:26;;;;;;;12.18;6.97;;;;;;;5.73;nan;100889.38;5070755;28;20036;-46
2023/04/15 03:56:52;;;;;;;9.10;7.88;;;;;;;5.64;nan;100879.91;5054616;28;20041;-45
2023/04/15 03:59:17;;;;;;;9.10;7.28;;;;;;;5.63;nan;100891.25;5070299;28;20047;-47
2023/04/15 04:01:42;;;;;;;8.65;7.60;;;;;;;5.60;nan;100894.75;5070006;28;20043;-46
2023/04/15 04:04:08;;;;;;;12.07;8.35;;;;;;;5.51;nan;100883.56;5072076;28;20118;-45
2023/04/15 04:06:33;;;;;;;10.57;7.88;;;;;;;5.20;nan;100837.75;5072743;28;20036;-42
2023/04/15 04:08:58;;;;;;;11.02;8.35;;;;;;;5.54;nan;100893.97;5073329;28;20530;-46
2023/04/15 04:11:24;;;;;;;10.38;7.30;;;;;;;5.52;nan;100906.16;5073522;28;20041;-45
2023/04/15 04:13:49;;;;;;;9.80;7.60;;;;;;;5.47;nan;100910.56;5068090;28;20049;-43
2023/04/15 04:16:15;;;;;;;10.10;7.93;;;;;;;5.39;nan;100900.22;5055226;28;20036;-47
2023/04/15 04:18:40;;;;;;;10.50;8.50;;;;;;;5.40;nan;100908.91;5071663;28;20036;-48
2023/04/15 04:21:05;;;;;;;9.35;8.10;;;;;;;5.25;nan;100890.78;5074244;28;20036;-46
2023/04/15 04:23:31;;;;;;;11.77;8.63;;;;;;;5.31;nan;100914.22;5088553;28;20226;-42
2023/04/15 04:25:57;;;;;;;10.15;7.65;;;;;;;5.17;nan;100896.06;5073167;28;20033;-42
2023/04/15 04:28:22;;;;;;;9.52;7.75;;;;;;;4.83;nan;100850.31;5073560;28;20039;-49
2023/04/15 04:30:48;;;;;;;10.98;7.80;;;;;;;5.20;nan;100923.88;5072786;28;20048;-46
2023/04/15 04:33:13;;;;;;;12.13;8.48;;;;;;;4.74;nan;100851.25;5068919;28;20099;-46
2023/04/15 04:35:38;;;;;;;10.82;8.13;;;;;;;5.13;nan;100940.47;5052938;28;20075;-46
2023/04/15 04:38:04;;;;;;;11.50;9.02;;;;;;;4.71;nan;100866.94;5077152;28;20043;-44
2023/04/15 04:40:29;;;;;;;10.10;8.57;;;;;;;4.82;nan;100901.59;5053063;28;20052;-44
2023/04/15 04:42:55;;;;;;;11.68;8.13;;;;;;;5.03;nan;100945.78;5065669;28;20035;-44
2023/04/15 04:45:20;;;;;;;13.38;9.13;;;;;;;4.58;nan;100870.53;5072841;28;20464;-46
2023/04/15 04:47:46;;;;;;;10.43;7.93;;;;;;;4.98;nan;100958.00;5071824;28;20048;-46
2023/04/15 04:50:12;;;;;;;9.93;8.73;;;;;;;4.90;nan;100951.94;5073662;28;20040;-45
2023/04/15 04:52:37;;;;;;;10.35;8.52;;;;;;;4.91;nan;100958.91;5072513;28;20086;-43
2023/04/15 04:55:03;;;;;;;12.25;8.88;;;;;;;4.90;nan;100961.53;5073582;28;20380;-47
2023/04/15 04:57:28;;;;;;;10.85;8.77;;;;;;;4.53;nan;100906.16;5072049;28;20035;-42
2023/04/15 04:59:54;;;;;;;13.30;9.10;;;;;;;4.85;nan;100968.50;5071644;28;20043;-45
2023/04/15 05:02:19;;;;;;;12.15;9.40;;;;;;;4.63;nan;100944.34;5073567;28;20064;-45
2023/04/15 05:04:44;;;;;;;12.88;9.70;;;;;;;4.47;nan;100935.75;5073597;28;20111;-43
2023/04/15 05:07:10;;;;;;;11.23;9.38;;;;;;;4.71;nan;100966.00;5072694;28;20032;-43
2023/04/15 05:09:35;;;;;;;13.23;9.77;;;;;;;4.71;nan;100981.66;5055359;28;20036;-44
2023/04/15 05:12:02;;;;;;;11.02;8.80;;;;;;;4.77;nan;100992.03;5073324;28;20029;-41
2023/04/15 05:14:28;;;;;;;10.30;9.20;;;;;;;4.69;nan;100977.31;5071735;28;20040;-45
2023/04/15 05:16:53;;;;;;;15.65;9.52;;;;;;;4.46;nan;100946.19;5073055;28;20494;-48
2023/04/15 05:19:18;;;;;;;10.80;9.68;;;;;;;4.77;nan;101004.22;5073091;28;20131;-44
2023/04/15 05:21:44;;;;;;;11.70;9.57;;;;;;;4.77;nan;101020.72;5072048;28;20046;-44
2023/04/15 05:24:09;;;;;;;10.65;9.38;;;;;;;4.39;nan;100942.75;5071861;28;20119;-45
2023/04/15 05:26:34;;;;;;;13.15;10.75;;;;;;;4.76;nan;101015.53;5072999;28;20115;-43
2023/04/15 05:29:00;;;;;;;11.77;9.88;;;;;;;4.86;nan;101023.28;5072510;28;20029;-44
2023/04/15 05:31:25;;;;;;;14.38;11.23;;;;;;;4.96;nan;101030.16;5072766;28;20064;-47
2023/04/15 05:33:51;;;;;;;13.25;10.43;;;;;;;4.99;nan;101027.53;5054766;28;20028;-45
2023/04/15 05:36:16;;;;;;;10.93;9.73;;;;;;;5.10;nan;101037.91;5072525;28;20036;-41
2023/04/15 05:38:41;;;;;;;10.57;9.27;;;;;;;5.17;nan;101047.41;5072590;28;20039;-41
2023/04/15 05:41:07;;;;;;;13.23;10.32;;;;;;;5.23;nan;101039.53;5071356;28;20028;-46
2023/04/15 05:43:32;;;;;;;13.40;10.43;;;;;;;5.38;nan;101051.59;5071291;28;20036;-49
2023/04/15 05:45:58;;;;;;;11.30;9.63;;;;;;;5.48;nan;101045.44;5072615;28;20155;-47
2023/04/15 05:48:23;;;;;;;11.05;9.85;;;;;;;5.20;nan;100994.31;5072575;28;20483;-46
2023/04/15 05:50:48;;;;;;;13.40;9.63;;;;;;;5.65;nan;101062.72;5071395;28;20043;-41
2023/04/15 05:53:14;;;;;;;12.73;9.63;;;;;;;5.83;nan;101066.91;5071201;28;20032;-45
2023/04/15 05:55:39;;;;;;;11.32;8.85;;;;;;;5.94;nan;101074.66;5072444;28;20155;-44
2023/04/15 05:58:05;;;;;;;11.25;9.75;;;;;;;6.09;nan;101083.22;5072468;28;20043;-47
2023/04/15 06:00:31;;;;;;;14.88;9.38;;;;;;;6.03;nan;101046.69;5072415;28;20420;-44
2023/04/15 06:02:57;;;;;;;13.23;9.55;;;;;;;6.38;nan;101092.47;5072021;28;20391;-45
2023/04/15 06:05:23;;;;;;;12.50;9.45;;;;;;;6.51;nan;101099.31;5072237;28;20043;-44
2023/04/15 06:07:49;;;;;;;11.75;10.07;;;;;;;6.61;nan;101100.94;5072453;28;20037;-45
2023/04/15 06:10:14;;;;;;;13.10;8.82;;;;;;;6.66;nan;101112.19;5072279;28;20089;-46
2023/04/15 06:12:40;;;;;;;10.80;8.95;;;;;;;6.47;nan;101053.16;5071777;28;20114;-49
2023/04/15 06:15:06;;;;;;;13.20;9.52;;;;;;;6.97;nan;101126.66;5070994;28;20024;-47
2023/04/15 06:17:31;;;;;;;11.63;9.82;;;;;;;7.10;nan;101135.19;5072063;28;20097;-45
2023/04/15 06:19:57;;;;;;;11.48;9.05;;;;;;;6.85;nan;101084.06;5072219;28;20059;-43
2023/04/15 06:22:22;;;;;;;11.27;8.60;;;;;;;7.31;nan;101143.63;5070532;28;20059;-46
2023/04/15 06:24:50;;;;;;;10.48;9.32;;;;;;;7.08;nan;101084.59;5070920;28;20031;-43
2023/04/15 06:27:15;;;;;;;12.73;8.80;;;;;;;7.59;nan;101158.94;5053955;28;20361;-46
2023/04/15 06:29:41;;;;;;;12.30;9.35;;;;;;;7.71;nan;101175.31;5072047;28;20051;-45
2023/04/15 06:32:06;;;;;;;9.85;8.85;;;;;;;7.83;nan;101166.38;5054263;28;20460;-44
2023/04/15 06:34:31;;;;;;;12.77;8.75;;;;;;;7.91;nan;101162.75;5071996;28;20492;-44
2023/04/15 06:36:57;;;;;;;11.45;8.90;;;;;;;8.07;nan;101171.25;5071823;28;20555;-42
2023/04/15 06:39:22;;;;;;;8.57;7.75;;;;;;;8.21;nan;101174.50;5070620;28;20066;-44
2023/04/15 06:41:47;;;;;;;11.10;9.20;;;;;;;8.15;nan;101164.09;5071773;28;20074;-47
2023/04/15 06:44:13;;;;;;;9.63;8.68;;;;;;;8.45;nan;101183.72;5071954;28;20036;-47
2023/04/15 06:46:38;;;;;;;9.55;8.43;;;;;;;8.24;nan;101129.84;5072003;28;20033;-49
2023/04/15 06:49:04;;;;;;;10.20;8.18;;;;;;;8.73;nan;101191.91;5073159;28;20037;-46
2023/04/15 06:51:30;;;;;;;10.63;7.95;;;;;;;8.56;nan;101139.78;5076100;28;20036;-44
2023/04/15 06:53:55;;;;;;;9.82;7.60;;;;;;;9.07;nan;101197.38;5076014;28;20115;-46
2023/04/15 06:56:22;;;;;;;10.77;8.60;;;;;;;9.06;nan;101149.25;5075859;28;20028;-47
2023/04/15 06:58:47;;;;;;;8.95;7.63;;;;;;;9.41;nan;101146.72;5076302;28;20043;-46
2023/04/15 07:01:13;;;;;;;7.60;6.80;;;;;;;10.07;nan;101220.50;5076131;28;20467;-49
2023/04/15 07:03:38;;;;;;;8.18;7.35;;;;;;;9.98;nan;101168.13;5076290;28;20090;-44
2023/04/15 07:06:05;;;;;;;8.63;7.40;;;;;;;10.36;nan;101171.59;5075695;28;20032;-43
2023/04/15 07:08:32;;;;;;;7.60;6.88;;;;;;;11.01;nan;101231.22;5075838;28;20036;-46
2023/04/15 07:10:58;;;;;;;9.05;7.07;;;;;;;11.44;nan;101224.72;5075690;28;20394;-46
2023/04/15 07:13:23;;;;;;;7.80;7.00;;;;;;;11.81;nan;101228.88;5075868;28;20079;-48
2023/04/15 07:15:49;;;;;;;7.25;6.47;;;;;;;12.22;nan;101232.81;5075861;28;20471;-48
2023/04/15 07:18:14;;;;;;;9.35;6.13;;;;;;;12.46;nan;101206.50;5075655;28;20028;-46
2023/04/15 07:20:40;;;;;;;7.93;6.18;;;;;;;12.41;nan;101201.38;5074121;28;20036;-46
2023/04/15 07:23:05;;;;;;;8.25;6.88;;;;;;;12.60;nan;101231.53;5075415;28;20041;-46
2023/04/15 07:25:31;;;;;;;9.15;6.53;;;;;;;12.90;nan;101272.72;5075167;28;20029;-47
2023/04/15 07:27:57;;;;;;;8.60;7.25;;;;;;;12.91;nan;101248.03;5075316;28;20041;-48
2023/04/15 07:30:22;;;;;;;7.13;6.30;;;;;;;13.09;nan;101275.63;5075430;28;20078;-46
2023/04/15 07:32:48;;;;;;;7.28;6.25;;;;;;;13.43;nan;101291.97;5075066;28;20040;-44
2023/04/15 07:35:13;;;;;;;6.70;6.00;;;;;;;13.34;nan;101220.91;5073955;28;20147;-49
2023/04/15 07:37:38;;;;;;;7.22;6.32;;;;;;;14.32;nan;101287.66;5075233;28;20033;-50
2023/04/15 07:40:06;;;;;;;7.32;5.95;;;;;;;14.37;nan;101258.31;5075067;28;20491;-50
2023/04/15 07:42:32;;;;;;;6.60;5.90;;;;;;;14.44;nan;101310.13;5075603;28;20086;-46
2023/04/15 07:44:58;;;;;;;8.20;6.68;;;;;;;14.81;nan;101312.97;5075410;28;20053;-46
2023/04/15 07:47:23;;;;;;;6.88;6.18;;;;;;;14.80;nan;101274.13;5075426;28;20450;-49
2023/04/15 07:49:50;;;;;;;7.35;6.72;;;;;;;14.83;nan;101310.22;5074913;28;20078;-45
2023/04/15 07:52:15;;;;;;;7.40;6.63;;;;;;;14.64;nan;101281.88;5074799;28;20032;-46
2023/04/15 07:54:41;;;;;;;6.95;6.35;;;;;;;15.11;nan;101289.59;5074921;28;20043;-49
2023/04/15 07:57:06;;;;;;;7.93;7.00;;;;;;;14.53;nan;101278.81;5073114;28;20043;-50
2023/04/15 07:59:32;;;;;;;7.50;6.53;;;;;;;15.21;nan;101318.25;5074860;28;20028;-44
2023/04/15 08:01:58;;;;;;;7.38;6.45;;;;;;;14.96;nan;101291.09;5074919;28;20036;-45
2023/04/15 08:04:23;;;;;;;6.47;5.88;;;;;;;15.60;nan;101328.06;5074841;28;20098;-46
2023/04/15 08:06:49;;;;;;;7.72;6.15;;;;;;;15.64;nan;101303.97;5073151;28;20166;-45
2023/04/15 08:09:15;;;;;;;8.27;6.65;;;;;;;15.96;nan;101358.25;5074750;28;20395;-45
2023/04/15 08:11:40;;;;;;;7.18;6.47;;;;;;;16.00;nan;101316.47;5074380;28;20063;-46
2023/04/15 08:14:05;;;;;;;7.10;6.40;;;;;;;16.09;nan;101321.34;5074089;28;20066;-46
2023/04/15 08:16:31;;;;;;;6.70;6.10;;;;;;;16.67;nan;101377.88;5073124;28;20033;-46
2023/04/15 08:18:56;;;;;;;6.32;5.80;;;;;;;16.99;nan;101344.41;5073071;28;20123;-48
2023/04/15 08:21:22;;;;;;;6.43;5.85;;;;;;;16.84;nan;101393.88;5073365;28;20082;-46
2023/04/15 08:23:49;;;;;;;7.32;6.63;;;;;;;16.61;nan;101362.22;5074561;28;20418;-47
2023/04/15 08:26:15;;;;;;;8.98;6.55;;;;;;;16.16;nan;101347.56;5073073;28;20034;-54
2023/04/15 08:28:41;;;;;;;6.57;5.97;;;;;;;16.36;nan;101402.38;5073169;28;20028;-46
2023/04/15 08:31:08;;;;;;;6.68;6.03;;;;;;;16.76;nan;101404.00;5073028;28;20033;-48
2023/04/15 08:33:33;;;;;;;5.75;5.05;;;;;;;17.01;nan;101401.00;5074344;28;20405;-47
2023/04/15 08:35:58;;;;;;;5.60;4.70;;;;;;;17.30;nan;101368.47;5074246;28;20044;-46
2023/04/15 08:38:24;;;;;;;5.53;5.03;;;;;;;17.75;nan;101419.31;5074193;28;20040;-46
2023/04/15 08:40:49;;;;;;;5.85;4.57;;;;;;;17.55;nan;101381.38;5073928;28;20468;-49
2023/04/15 08:43:20;;;;;;;4.50;4.10;;;;;;;17.30;nan;101421.69;5073978;28;20036;-45
2023/04/15 08:45:48;;;;;;;4.90;4.50;;;;;;;17.46;nan;101377.38;5072838;28;20392;-45
2023/04/15 08:48:17;;;;;;;5.32;4.82;;;;;;;17.59;nan;101430.88;5072551;28;20032;-45
2023/04/15 08:50:43;;;;;;;7.75;5.60;;;;;;;17.42;nan;101445.84;5073899;28;20154;-45
2023/04/15 08:53:09;;;;;;;6.72;5.65;;;;;;;17.31;nan;101442.00;5072903;28;20036;-47
2023/04/15 08:55:35;;;;;;;7.70;5.68;;;;;;;17.22;nan;101437.19;5071989;28;20074;-45
2023/04/15 08:58:01;;;;;;;5.70;5.15;;;;;;;16.72;nan;101383.84;5073490;28;20102;-45
2023/04/15 09:00:28;;;;;;;6.97;5.00;;;;;;;17.42;nan;101461.81;5072816;28;20033;-46
2023/04/15 09:02:54;;;;;;;8.50;5.93;;;;;;;17.19;nan;101386.78;5073369;28;20055;-47
2023/04/15 09:05:20;;;;;;;5.70;5.18;;;;;;;17.96;nan;101465.25;5073611;28;20040;-44
2023/04/15 09:07:46;;;;;;;6.80;5.53;;;;;;;17.86;nan;101467.53;5071948;28;20036;-52
2023/04/15 09:10:11;;;;;;;6.88;5.07;;;;;;;17.36;nan;101445.34;5071444;28;20053;-47
2023/04/15 09:12:37;;;;;;;7.78;5.65;;;;;;;17.55;nan;101458.56;5071803;28;20057;-47
2023/04/15 09:15:03;;;;;;;7.28;5.70;;;;;;;17.01;nan;101416.97;5071956;28;20111;-46
2023/04/15 09:17:32;;;;;;;5.28;4.45;;;;;;;17.33;nan;101474.75;5072247;28;20106;-46
2023/04/15 09:20:08;;;;;;;7.05;4.53;;;;;;;17.15;nan;101462.38;5073007;28;20458;-47
2023/04/15 09:22:34;;;;;;;6.20;5.28;;;;;;;17.72;nan;101463.88;5072373;28;20105;-47
2023/04/15 09:24:59;;;;;;;8.57;5.45;;;;;;;17.74;nan;101409.63;5073214;28;20446;-48
2023/04/15 09:27:25;;;;;;;7.75;5.07;;;;;;;18.17;nan;101426.81;5073141;28;20032;-47
2023/04/15 09:29:50;;;;;;;5.70;4.50;;;;;;;18.45;nan;101437.69;5073079;28;20395;-45
2023/04/15 09:32:16;;;;;;;5.43;4.57;;;;;;;18.16;nan;101432.22;5071712;28;20064;-45
2023/04/15 09:34:42;;;;;;;6.22;4.43;;;;;;;18.60;nan;101435.13;5073156;28;20442;-46
2023/04/15 09:37:09;;;;;;;5.53;4.22;;;;;;;18.94;nan;101437.63;5073234;28;20127;-45
2023/04/15 09:39:48;;;;;;;4.05;3.60;;;;;;;19.01;nan;101461.19;5073086;28;20055;-47
2023/04/15 09:42:16;;;;;;;4.85;3.35;;;;;;;18.33;nan;101518.31;5072908;28;20060;-46
2023/04/15 09:44:43;;;;;;;5.57;4.15;;;;;;;18.20;nan;101524.38;5071589;28;20033;-46
2023/04/15 09:47:08;;;;;;;4.63;3.60;;;;;;;19.03;nan;101522.47;5071560;28;20037;-46
2023/04/15 09:49:33;;;;;;;6.75;4.05;;;;;;;19.02;nan;101515.41;5072905;28;20460;-49
2023/04/15 09:52:00;;;;;;;4.38;3.72;;;;;;;19.44;nan;101534.31;5072670;28;20527;-46
2023/04/15 09:54:32;;;;;;;3.88;3.13;;;;;;;18.92;nan;101456.38;5071523;28;20025;-47
2023/04/15 09:57:04;;;;;;;4.22;3.25;;;;;;;18.91;nan;101532.00;5071489;28;20032;-45
2023/04/15 09:59:29;;;;;;;4.60;3.45;;;;;;;18.22;nan;101530.47;5072519;28;20024;-47
2023/04/15 10:01:55;;;;;;;4.90;3.35;;;;;;;17.89;nan;101523.31;5072392;28;20464;-46
2023/04/15 10:04:20;;;;;;;3.92;2.78;;;;;;;18.35;nan;101529.78;5072394;28;20039;-43
2023/04/15 10:06:46;;;;;;;3.35;2.15;;;;;;;19.07;nan;101532.00;5072622;28;20044;-46
2023/04/15 10:09:12;;;;;;;2.88;2.30;;;;;;;18.98;nan;101522.72;5072407;28;20403;-45
2023/04/15 10:11:38;;;;;;;2.70;2.25;;;;;;;19.32;nan;101532.31;5071400;28;20083;-47
2023/04/15 10:14:04;;;;;;;2.83;2.05;;;;;;;19.13;nan;101541.47;5054565;28;20040;-54
2023/04/15 10:16:31;;;;;;;4.53;2.70;;;;;;;19.35;nan;101545.50;5071203;28;20077;-47
2023/04/15 10:19:00;;;;;;;3.90;2.67;;;;;;;18.80;nan;101538.88;5071233;28;20138;-44
2023/04/15 10:21:27;;;;;;;4.50;2.40;;;;;;;19.56;nan;101546.09;5071349;28;20054;-45
2023/04/15 10:23:52;;;;;;;2.92;2.17;;;;;;;19.56;nan;101540.75;5070509;28;20044;-45
2023/04/15 10:26:17;;;;;;;3.25;2.47;;;;;;;20.10;nan;101499.19;5072440;28;20029;-45
2023/04/15 10:28:47;;;;;;;3.33;2.30;;;;;;;19.81;nan;101545.53;5072177;28;20438;-46
2023/04/15 10:31:13;;;;;;;2.40;2.20;;;;;;;19.54;nan;101550.69;5070958;28;20053;-45
2023/04/15 10:33:40;;;;;;;2.35;1.80;;;;;;;20.23;nan;101553.59;5072470;28;20035;-45
2023/04/15 10:36:06;;;;;;;2.97;1.85;;;;;;;20.54;nan;101553.50;5071222;28;20090;-45
2023/04/15 10:38:37;;;;;;;4.65;2.20;;;;;;;20.56;nan;101527.50;5072372;28;20039;-49
2023/04/15 10:41:12;;;;;;;;;;;;;;;21.18;nan;101558.31;5071458;28;20029;-47
2023/04/15 10:43:37;;;;;;;2.60;2.40;;;;;;;20.78;nan;101543.91;5072030;28;20279;-49
2023/04/15 10:46:05;;;;;;;5.18;3.05;;;;;;;20.25;nan;101548.19;5054328;28;20028;-47
2023/04/15 10:48:30;;;;;;;3.55;2.83;;;;;;;20.26;nan;101502.66;5072205;28;20180;-50
2023/04/15 10:50:56;;;;;;;4.47;2.80;;;;;;;21.07;nan;101560.75;5072210;28;20127;-50
2023/04/15 10:53:28;;;;;;;4.13;3.03;;;;;;;20.06;nan;101567.16;5071687;28;20033;-50
2023/04/15 10:55:55;;;;;;;6.78;3.15;;;;;;;20.32;nan;101558.44;5072209;28;20479;-48
2023/04/15 10:58:23;;;;;;;3.08;2.50;;;;;;;20.39;nan;101511.66;5072087;28;20090;-46
2023/04/15 11:00:51;;;;;;;3.35;2.42;;;;;;;18.95;nan;101525.56;5072158;28;20036;-45
2023/04/15 11:03:35;;;;;;;4.13;2.45;;;;;;;19.16;nan;101565.31;5072119;28;20032;-50
2023/04/15 11:06:01;;;;;;;3.30;3.00;;;;;;;18.69;nan;101515.50;5072072;28;20032;-46
2023/04/15 11:09:08;;;;;;;6.28;3.03;;;;;;;18.96;nan;101579.78;5071809;28;20441;-47
2023/04/15 11:12:09;;;;;;;3.95;3.58;;;;;;;18.62;nan;101580.78;5009872;28;20049;-45
2023/04/15 11:14:42;;;;;;;2.75;2.47;;;;;;;19.54;nan;101522.16;4979443;28;20125;-49
2023/04/15 11:17:07;;;;;;;3.25;2.85;;;;;;;19.61;nan;101525.34;5069556;28;20619;-47
2023/04/15 11:19:37;;;;;;;4.70;3.17;;;;;;;18.94;nan;101536.34;5054108;28;20041;-49
2023/04/15 11:22:09;;;;;;;3.87;2.70;;;;;;;18.26;nan;101535.59;5070850;28;20028;-45
2023/04/15 11:24:36;;;;;;;4.88;2.00;;;;;;;18.41;nan;101600.53;5071937;28;20035;-51
2023/04/15 11:27:01;;;;;;;3.65;2.53;;;;;;;18.81;nan;101609.97;5070224;28;20033;-47
2023/04/15 11:29:33;;;;;;;2.75;2.22;;;;;;;19.27;nan;101597.59;5071609;28;20039;-46
2023/04/15 11:32:06;;;;;;;3.28;2.60;;;;;;;19.11;nan;101605.63;5071787;28;20025;-50
2023/04/15 11:34:31;;;;;;;2.13;1.88;;;;;;;19.94;nan;101624.00;5072282;28;20039;-46
2023/04/15 11:36:57;;;;;;;2.38;2.00;;;;;;;19.21;nan;101601.47;5075340;28;20040;-48
2023/04/15 11:39:22;;;;;;;2.65;2.08;;;;;;;19.52;nan;101620.22;5074169;28;20047;-47